Time;durP1;ratioP1;P1;durP2;ratioP2;P2;SDS_P1;SDS_P2;PMS_P1;PMS_P2;Temp;Humidity;BMP_temperature;BMP_pressure;BME280_temperature;BME280_humidity;BME280_pressure;Samples;Min_cycle;Max_cycle;Signal;HPM_P1;HPM_P2
2021/11/10 00:01:57;;;;;;;;;;;5.60;99.90;;;;;;5043237;22;19983;-75
2021/11/10 00:04:23;;;;;;;;;;;5.60;99.90;;;;;;5028888;28;19909;-74
2021/11/10 00:06:48;;;;;;;;;;;5.60;99.90;;;;;;5026260;28;19917;-75
2021/11/10 00:09:14;;;;;;;;;;;5.50;99.90;;;;;;5002864;28;19913;-75
2021/11/10 00:11:40;;;;;;;;;;;5.50;99.90;;;;;;5026238;28;19929;-74
2021/11/10 00:14:05;;;;;;;;;;;5.50;99.90;;;;;;5026260;28;19919;-74
2021/11/10 00:16:30;;;;;;;;;;;5.50;99.90;;;;;;5024192;28;19917;-75
2021/11/10 00:18:56;;;;;;;;;;;5.50;99.90;;;;;;5026824;28;20368;-75
2021/11/10 00:21:22;;;;;;;;;;;5.60;99.90;;;;;;5027469;28;20024;-75
2021/11/10 00:23:48;;;;;;;;;;;5.50;99.90;;;;;;5026965;28;19937;-75
2021/11/10 00:26:13;;;;;;;;;;;5.50;99.90;;;;;;5026524;28;20372;-75
2021/11/10 00:28:39;;;;;;;;;;;5.50;99.90;;;;;;5028845;28;19909;-75
2021/11/10 00:31:05;;;;;;;;;;;5.40;99.90;;;;;;5026413;28;19925;-75
2021/11/10 00:33:30;;;;;;;;;;;5.40;99.90;;;;;;5025336;28;19914;-75
2021/11/10 00:35:56;;;;;;;;;;;5.40;99.90;;;;;;5023130;28;19921;-75
2021/11/10 00:38:21;;;;;;;;;;;5.30;99.90;;;;;;5027820;28;19946;-75
2021/11/10 00:40:47;;;;;;;;;;;5.20;99.90;;;;;;5026176;28;20012;-75
2021/11/10 00:43:12;;;;;;;;;;;5.20;99.90;;;;;;5025821;28;19922;-75
2021/11/10 00:45:38;;;;;;;;;;;5.10;99.90;;;;;;5026901;28;19980;-75
2021/11/10 00:48:04;;;;;;;;;;;5.00;99.90;;;;;;5024063;28;20430;-75
2021/11/10 00:50:29;;;;;;;;;;;5.00;99.90;;;;;;5002636;28;19956;-75
2021/11/10 00:52:55;;;;;;;;;;;5.00;99.90;;;;;;5025439;28;19961;-75
2021/11/10 00:55:20;;;;;;;;;;;5.00;99.90;;;;;;5027805;28;19913;-75
2021/11/10 00:57:45;;;;;;;;;;;5.10;99.90;;;;;;5026271;28;20511;-75
2021/11/10 01:00:11;;;;;;;;;;;5.10;99.90;;;;;;5025143;28;19910;-75
2021/11/10 01:02:36;;;;;;;;;;;5.20;99.90;;;;;;5026943;28;19963;-75
2021/11/10 01:05:03;;;;;;;;;;;5.20;99.90;;;;;;5027176;28;19940;-75
2021/11/10 01:07:28;;;;;;;;;;;5.20;99.90;;;;;;5024165;28;19909;-74
2021/11/10 01:09:58;;;;;;;;;;;5.30;99.90;;;;;;5024050;28;19928;-75
2021/11/10 01:12:24;;;;;;;;;;;5.30;99.90;;;;;;5025449;28;19963;-75
2021/11/10 01:14:50;;;;;;;;;;;5.30;99.90;;;;;;5023897;28;19921;-75
2021/11/10 01:17:15;;;;;;;;;;;5.30;99.90;;;;;;5024888;28;19924;-74
2021/11/10 01:19:41;;;;;;;;;;;5.30;99.90;;;;;;5026550;28;20008;-75
2021/11/10 01:22:06;;;;;;;;;;;5.30;99.90;;;;;;5026264;28;19976;-75
2021/11/10 01:24:32;;;;;;;;;;;5.30;99.90;;;;;;5028939;28;19913;-75
2021/11/10 01:26:58;;;;;;;;;;;5.20;99.90;;;;;;5024012;28;19917;-75
2021/11/10 01:29:23;;;;;;;;;;;5.20;99.90;;;;;;5026399;28;20031;-75
2021/11/10 01:31:48;;;;;;;;;;;5.10;99.90;;;;;;5023764;28;20402;-75
2021/11/10 01:34:14;;;;;;;;;;;5.10;99.90;;;;;;5026411;28;19924;-75
2021/11/10 01:36:39;;;;;;;;;;;5.10;99.90;;;;;;5028902;28;19909;-75
2021/11/10 01:39:06;;;;;;;;;;;5.10;99.90;;;;;;5031955;28;20454;-76
2021/11/10 01:41:37;;;;;;;;;;;5.10;99.90;;;;;;5030078;28;19968;-75
2021/11/10 01:44:02;;;;;;;;;;;5.00;99.90;;;;;;5028614;28;20009;-76
2021/11/10 01:46:28;;;;;;;;;;;5.00;99.90;;;;;;5023856;28;19988;-75
2021/11/10 01:48:53;;;;;;;;;;;4.90;99.90;;;;;;5031175;28;19986;-75
2021/11/10 01:51:19;;;;;;;;;;;4.90;99.90;;;;;;5029159;28;19925;-76
2021/11/10 01:53:44;;;;;;;;;;;4.90;99.90;;;;;;5028770;28;20707;-76
2021/11/10 01:56:10;;;;;;;;;;;4.90;99.90;;;;;;5026958;28;20010;-76
2021/11/10 01:58:36;;;;;;;;;;;4.90;99.90;;;;;;5030069;28;19913;-75
2021/11/10 02:01:01;;;;;;;;;;;4.90;99.90;;;;;;5026619;28;20038;-75
2021/11/10 02:03:27;;;;;;;;;;;4.90;99.90;;;;;;5027237;28;20256;-74
2021/11/10 02:05:52;;;;;;;;;;;4.80;99.90;;;;;;5028381;28;19991;-75
2021/11/10 02:08:18;;;;;;;;;;;4.80;99.90;;;;;;5031945;28;19995;-75
2021/11/10 02:10:43;;;;;;;;;;;4.70;99.90;;;;;;5029662;28;19917;-76
2021/11/10 02:13:08;;;;;;;;;;;4.70;99.90;;;;;;5027445;28;19944;-76
2021/11/10 02:15:35;;;;;;;;;;;4.60;99.90;;;;;;5028036;28;19917;-76
2021/11/10 02:18:02;;;;;;;;;;;4.60;99.90;;;;;;5025021;28;19920;-76
2021/11/10 02:20:34;;;;;;;;;;;4.60;99.90;;;;;;5028674;28;19917;-76
2021/11/10 02:23:01;;;;;;;;;;;4.60;99.90;;;;;;5029408;28;19917;-76
2021/11/10 02:25:29;;;;;;;;;;;4.60;99.90;;;;;;5029287;28;19983;-76
2021/11/10 02:27:58;;;;;;;;;;;4.60;99.90;;;;;;5028207;28;20004;-76
2021/11/10 02:30:24;;;;;;;;;;;4.60;99.90;;;;;;5030080;28;19913;-76
2021/11/10 02:32:51;;;;;;;;;;;4.50;99.90;;;;;;5027587;28;20269;-75
2021/11/10 02:35:21;;;;;;;;;;;4.50;99.90;;;;;;5029328;28;19917;-75
2021/11/10 02:37:51;;;;;;;;;;;4.40;99.90;;;;;;5026358;28;19979;-75
2021/11/10 02:40:16;;;;;;;;;;;4.40;99.90;;;;;;5027699;28;19918;-75
2021/11/10 02:42:42;;;;;;;;;;;4.40;99.90;;;;;;5028012;28;19932;-75
2021/11/10 02:45:07;;;;;;;;;;;4.40;99.90;;;;;;5027973;28;19914;-75
2021/11/10 02:47:34;;;;;;;;;;;4.40;99.90;;;;;;5026549;28;19962;-75
2021/11/10 02:49:59;;;;;;;;;;;4.30;99.90;;;;;;5025867;28;19913;-75
2021/11/10 02:52:25;;;;;;;;;;;4.30;99.90;;;;;;5026111;28;19920;-75
2021/11/10 02:54:52;;;;;;;;;;;4.40;99.90;;;;;;5028449;28;19923;-75
2021/11/10 02:57:19;;;;;;;;;;;4.40;99.90;;;;;;5028483;28;20364;-75
2021/11/10 02:59:44;;;;;;;;;;;4.40;99.90;;;;;;5028392;28;19917;-74
2021/11/10 03:02:10;;;;;;;;;;;4.50;99.90;;;;;;5024819;28;20272;-75
2021/11/10 03:04:43;;;;;;;;;;;4.50;99.90;;;;;;5027313;28;20327;-75
2021/11/10 03:07:08;;;;;;;;;;;4.50;99.90;;;;;;5030429;28;19913;-75
2021/11/10 03:09:35;;;;;;;;;;;4.50;99.90;;;;;;5010298;28;19947;-75
2021/11/10 03:12:01;;;;;;;;;;;4.40;99.90;;;;;;5026346;28;19917;-78
2021/11/10 03:14:28;;;;;;;;;;;4.40;99.90;;;;;;5029957;28;19917;-75
2021/11/10 03:16:54;;;;;;;;;;;4.40;99.90;;;;;;5011066;28;19917;-75
2021/11/10 03:19:20;;;;;;;;;;;4.30;99.90;;;;;;5026705;28;19913;-75
2021/11/10 03:21:46;;;;;;;;;;;4.30;99.90;;;;;;5010637;28;20471;-76
2021/11/10 03:24:11;;;;;;;;;;;4.30;99.90;;;;;;5026256;28;19921;-75
2021/11/10 03:26:36;;;;;;;;;;;4.30;99.90;;;;;;5029345;28;19920;-75
2021/11/10 03:29:03;;;;;;;;;;;4.30;99.90;;;;;;5024211;28;19924;-76
2021/11/10 03:31:32;;;;;;;;;;;4.20;99.90;;;;;;5027058;28;20295;-75
2021/11/10 03:33:58;;;;;;;;;;;4.20;99.90;;;;;;5025054;28;20356;-76
2021/11/10 03:36:23;;;;;;;;;;;4.20;99.90;;;;;;5027075;28;20417;-75
2021/11/10 03:38:49;;;;;;;;;;;4.20;99.90;;;;;;5027103;28;19913;-76
2021/11/10 03:41:14;;;;;;;;;;;4.20;99.90;;;;;;5027622;28;20304;-76
2021/11/10 03:43:40;;;;;;;;;;;4.20;99.90;;;;;;5024890;28;20395;-76
2021/11/10 03:46:05;;;;;;;;;;;4.20;99.90;;;;;;5025404;28;20264;-75
2021/11/10 03:48:31;;;;;;;;;;;4.20;99.90;;;;;;5026207;28;20000;-76
2021/11/10 03:50:56;;;;;;;;;;;4.20;99.90;;;;;;5027514;28;19917;-76
2021/11/10 03:53:21;;;;;;;;;;;4.20;99.90;;;;;;5026974;28;19916;-75
2021/11/10 03:55:47;;;;;;;;;;;4.10;99.90;;;;;;5026320;28;20430;-76
2021/11/10 03:58:13;;;;;;;;;;;4.10;99.90;;;;;;5009378;28;20441;-75
2021/11/10 04:00:38;;;;;;;;;;;4.10;99.90;;;;;;5007204;28;19917;-76
2021/11/10 04:03:04;;;;;;;;;;;4.10;99.90;;;;;;5024915;28;19923;-76
2021/11/10 04:05:30;;;;;;;;;;;4.00;99.90;;;;;;5028529;28;19913;-75
2021/11/10 04:07:55;;;;;;;;;;;4.00;99.90;;;;;;5028396;28;19924;-75
2021/11/10 04:10:21;;;;;;;;;;;4.00;99.90;;;;;;5027534;28;20471;-75
2021/11/10 04:12:47;;;;;;;;;;;4.00;99.90;;;;;;5009001;28;19928;-75
2021/11/10 04:15:12;;;;;;;;;;;3.90;99.90;;;;;;5027650;28;19921;-76
2021/11/10 04:17:38;;;;;;;;;;;3.90;99.90;;;;;;5027482;28;20372;-75
2021/11/10 04:20:04;;;;;;;;;;;3.90;99.90;;;;;;5025040;28;19913;-75
2021/11/10 04:22:29;;;;;;;;;;;3.90;99.90;;;;;;5025157;28;19960;-76
2021/11/10 04:24:54;;;;;;;;;;;3.90;99.90;;;;;;5025069;28;19936;-76
2021/11/10 04:27:20;;;;;;;;;;;3.90;99.90;;;;;;5027938;28;19967;-75
2021/11/10 04:29:46;;;;;;;;;;;3.90;99.90;;;;;;5026795;28;19972;-76
2021/11/10 04:32:12;;;;;;;;;;;3.90;99.90;;;;;;5024250;28;19913;-76
2021/11/10 04:34:38;;;;;;;;;;;3.90;99.90;;;;;;5027008;28;19916;-76
2021/11/10 04:37:04;;;;;;;;;;;3.90;99.90;;;;;;5009308;28;19917;-76
2021/11/10 04:39:30;;;;;;;;;;;3.90;99.90;;;;;;5023818;28;19909;-75
2021/11/10 04:41:55;;;;;;;;;;;3.80;99.90;;;;;;5024350;28;19925;-76
2021/11/10 04:44:20;;;;;;;;;;;3.80;99.90;;;;;;5024586;28;20806;-76
2021/11/10 04:46:46;;;;;;;;;;;3.80;99.90;;;;;;5027228;28;20380;-76
2021/11/10 04:49:11;;;;;;;;;;;3.70;99.90;;;;;;5025447;28;19917;-76
2021/11/10 04:51:38;;;;;;;;;;;3.70;99.90;;;;;;5026219;28;19917;-76
2021/11/10 04:54:12;;;;;;;;;;;3.70;99.90;;;;;;5025769;28;20364;-76
2021/11/10 04:56:38;;;;;;;;;;;3.60;99.90;;;;;;5027283;28;19917;-76
2021/11/10 04:59:03;;;;;;;;;;;3.60;99.90;;;;;;5026754;28;19917;-76
2021/11/10 05:01:29;;;;;;;;;;;3.60;99.90;;;;;;5025242;28;19917;-76
2021/11/10 05:03:55;;;;;;;;;;;3.60;99.90;;;;;;5023502;28;19913;-76
2021/11/10 05:06:21;;;;;;;;;;;3.60;99.90;;;;;;5026130;28;20321;-76
2021/11/10 05:08:47;;;;;;;;;;;3.60;99.90;;;;;;5009920;28;19929;-76
2021/11/10 05:11:12;;;;;;;;;;;3.60;99.90;;;;;;5029766;28;20022;-76
2021/11/10 05:13:39;;;;;;;;;;;3.60;99.90;;;;;;5028775;28;20404;-76
2021/11/10 05:16:04;;;;;;;;;;;3.60;99.90;;;;;;5013251;28;19913;-76
2021/11/10 05:18:30;;;;;;;;;;;3.60;99.90;;;;;;5027546;28;19936;-76
2021/11/10 05:20:55;;;;;;;;;;;3.50;99.90;;;;;;5028710;28;19960;-76
2021/11/10 05:23:21;;;;;;;;;;;3.50;99.90;;;;;;5029233;28;20003;-75
2021/11/10 05:25:47;;;;;;;;;;;3.40;99.90;;;;;;5030407;28;19921;-76
2021/11/10 05:28:13;;;;;;;;;;;3.40;99.90;;;;;;5029181;28;19918;-74
2021/11/10 05:30:38;;;;;;;;;;;3.40;99.90;;;;;;5028440;28;19956;-75
2021/11/10 05:33:04;;;;;;;;;;;3.40;99.90;;;;;;5029123;28;19913;-76
2021/11/10 05:35:29;;;;;;;;;;;3.40;99.90;;;;;;5030369;28;20808;-76
2021/11/10 05:37:55;;;;;;;;;;;3.50;99.90;;;;;;5030402;28;19948;-76
2021/11/10 05:40:21;;;;;;;;;;;3.50;99.90;;;;;;5031132;28;19924;-76
2021/11/10 05:42:46;;;;;;;;;;;3.50;99.90;;;;;;5008917;28;19924;-76
2021/11/10 05:45:12;;;;;;;;;;;3.50;99.90;;;;;;5024380;28;19909;-76
2021/11/10 05:47:37;;;;;;;;;;;3.40;99.90;;;;;;5009283;28;20291;-80
2021/11/10 05:50:07;;;;;;;;;;;3.40;99.90;;;;;;5028680;28;19913;-77
2021/11/10 05:52:32;;;;;;;;;;;3.40;99.90;;;;;;5029113;28;19932;-77
2021/11/10 05:54:58;;;;;;;;;;;3.40;99.90;;;;;;5031783;28;20360;-76
2021/11/10 05:57:24;;;;;;;;;;;3.50;99.90;;;;;;5012559;28;20016;-77
2021/11/10 05:59:49;;;;;;;;;;;3.50;99.90;;;;;;5032944;28;19913;-79
2021/11/10 06:02:15;;;;;;;;;;;3.40;99.90;;;;;;5051429;22;19933;-72
2021/11/10 06:04:43;;;;;;;;;;;3.50;99.90;;;;;;5030583;28;20003;-72
2021/11/10 06:07:08;;;;;;;;;;;3.40;99.90;;;;;;5031512;28;19920;-70
2021/11/10 06:09:34;;;;;;;;;;;3.40;99.90;;;;;;5030004;28;19913;-70
2021/11/10 06:11:59;;;;;;;;;;;3.40;99.90;;;;;;5027437;28;19913;-71
2021/11/10 06:14:25;;;;;;;;;;;3.50;99.90;;;;;;5028995;28;19924;-72
2021/11/10 06:16:50;;;;;;;;;;;3.50;99.90;;;;;;5030531;28;19991;-71
2021/11/10 06:19:16;;;;;;;;;;;3.50;99.90;;;;;;5011161;28;20007;-71
2021/11/10 06:21:41;;;;;;;;;;;3.50;99.90;;;;;;5027132;28;20411;-73
2021/11/10 06:24:07;;;;;;;;;;;3.50;99.90;;;;;;5025809;28;19909;-71
2021/11/10 06:26:32;;;;;;;;;;;3.50;99.90;;;;;;5008908;28;20026;-70
2021/11/10 06:28:57;;;;;;;;;;;3.80;99.90;;;;;;5027699;28;19920;-69
2021/11/10 06:31:23;;;;;;;;;;;4.30;99.90;;;;;;5028885;28;20003;-69
2021/11/10 06:33:49;;;;;;;;;;;4.30;99.90;;;;;;5012725;28;19920;-70
2021/11/10 06:36:14;;;;;;;;;;;4.20;99.90;;;;;;5009764;28;20058;-69
2021/11/10 06:38:40;;;;;;;;;;;4.00;99.90;;;;;;5027858;28;19952;-69
2021/11/10 06:41:05;;;;;;;;;;;3.80;99.90;;;;;;5028381;28;20021;-69
2021/11/10 06:43:32;;;;;;;;;;;3.70;99.90;;;;;;5028676;28;20105;-69
2021/11/10 06:45:57;;;;;;;;;;;3.70;99.90;;;;;;5028547;28;19921;-69
2021/11/10 06:48:23;;;;;;;;;;;3.60;99.90;;;;;;5029769;28;19917;-69
2021/11/10 06:50:48;;;;;;;;;;;3.60;99.90;;;;;;5028775;28;20043;-69
2021/11/10 06:53:14;;;;;;;;;;;3.50;99.90;;;;;;5029757;28;19920;-69
2021/11/10 06:55:39;;;;;;;;;;;3.50;99.90;;;;;;5029555;28;19909;-69
2021/11/10 06:58:05;;;;;;;;;;;3.40;99.90;;;;;;5011721;28;19909;-69
2021/11/10 07:00:31;;;;;;;;;;;3.40;99.90;;;;;;5028669;28;19909;-70
2021/11/10 07:02:57;;;;;;;;;;;3.40;99.90;;;;;;5008141;28;19920;-71
2021/11/10 07:05:23;;;;;;;;;;;3.40;99.90;;;;;;5025239;28;19921;-68
2021/11/10 07:07:48;;;;;;;;;;;3.40;99.90;;;;;;5027209;28;19913;-70
2021/11/10 07:10:14;;;;;;;;;;;3.40;99.90;;;;;;5015401;28;19918;-68
2021/11/10 07:12:39;;;;;;;;;;;3.40;99.90;;;;;;5025728;28;20003;-68
2021/11/10 07:15:05;;;;;;;;;;;3.40;99.90;;;;;;5009318;28;19917;-68
2021/11/10 07:17:30;;;;;;;;;;;3.40;99.90;;;;;;5008621;28;19913;-68
2021/11/10 07:19:56;;;;;;;;;;;3.40;99.90;;;;;;5025978;28;20485;-67
2021/11/10 07:22:21;;;;;;;;;;;3.40;99.90;;;;;;5024338;28;19917;-67
2021/11/10 07:24:47;;;;;;;;;;;3.40;99.90;;;;;;5027336;28;19913;-68
2021/11/10 07:27:13;;;;;;;;;;;3.40;99.90;;;;;;5007644;28;19927;-68
2021/11/10 07:29:39;;;;;;;;;;;3.40;99.90;;;;;;5025579;28;20365;-68
2021/11/10 07:32:04;;;;;;;;;;;3.40;99.90;;;;;;5008603;28;19913;-68
2021/11/10 07:34:30;;;;;;;;;;;3.40;99.90;;;;;;5026530;28;19924;-68
2021/11/10 07:36:55;;;;;;;;;;;3.50;99.90;;;;;;5022583;28;19917;-70
2021/11/10 07:39:21;;;;;;;;;;;3.40;99.90;;;;;;5027244;28;20353;-69
2021/11/10 07:41:49;;;;;;;;;;;3.50;99.90;;;;;;5008010;28;19923;-69
2021/11/10 07:44:14;;;;;;;;;;;3.50;99.90;;;;;;5026235;28;20004;-69
2021/11/10 07:46:41;;;;;;;;;;;3.50;99.90;;;;;;5027125;28;20106;-69
2021/11/10 07:49:06;;;;;;;;;;;3.50;99.90;;;;;;5024592;28;20327;-68
2021/11/10 07:51:32;;;;;;;;;;;3.50;99.90;;;;;;5028363;28;19913;-69
2021/11/10 07:54:00;;;;;;;;;;;3.60;99.90;;;;;;5026301;28;19918;-69
2021/11/10 07:56:25;;;;;;;;;;;3.60;99.90;;;;;;5028244;28;20339;-69
2021/11/10 07:58:51;;;;;;;;;;;3.70;99.90;;;;;;5026843;28;19921;-69
2021/11/10 08:01:17;;;;;;;;;;;3.70;99.90;;;;;;5009586;28;19921;-69
2021/11/10 08:03:42;;;;;;;;;;;3.80;99.90;;;;;;5008577;28;19917;-68
2021/11/10 08:06:09;;;;;;;;;;;3.80;99.90;;;;;;5027200;28;21400;-69
2021/11/10 08:08:35;;;;;;;;;;;3.80;99.90;;;;;;5027285;28;20279;-70
2021/11/10 08:11:01;;;;;;;;;;;3.90;99.90;;;;;;5027254;28;19936;-70
2021/11/10 08:13:28;;;;;;;;;;;3.90;99.90;;;;;;5026569;28;19917;-70
2021/11/10 08:15:54;;;;;;;;;;;4.00;99.90;;;;;;5024597;28;20371;-70
2021/11/10 08:18:20;;;;;;;;;;;4.00;99.90;;;;;;5002968;28;19913;-69
2021/11/10 08:20:46;;;;;;;;;;;4.10;99.90;;;;;;5027543;28;19913;-69
2021/11/10 08:23:19;;;;;;;;;;;4.10;99.90;;;;;;5026158;28;19936;-69
2021/11/10 08:25:45;;;;;;;;;;;4.10;99.90;;;;;;5008584;28;20593;-70
2021/11/10 08:28:11;;;;;;;;;;;4.10;99.90;;;;;;5006654;28;19995;-70
2021/11/10 08:30:36;;;;;;;;;;;4.20;99.90;;;;;;5009177;28;19960;-70
2021/11/10 08:33:02;;;;;;;;;;;4.20;99.90;;;;;;5006751;28;19972;-70
2021/11/10 08:35:28;;;;;;;;;;;4.30;99.90;;;;;;5026229;28;20195;-69
2021/11/10 08:37:54;;;;;;;;;;;4.30;99.90;;;;;;5024604;28;20015;-70
2021/11/10 08:40:19;;;;;;;;;;;4.40;99.90;;;;;;5027864;28;20349;-69
2021/11/10 08:42:45;;;;;;;;;;;4.40;99.90;;;;;;5021007;28;19927;-70
2021/11/10 08:45:18;;;;;;;;;;;4.50;99.90;;;;;;5029237;28;19956;-70
2021/11/10 08:47:45;;;;;;;;;;;4.50;99.90;;;;;;5027460;28;19917;-71
2021/11/10 08:50:13;;;;;;;;;;;4.50;99.90;;;;;;5031253;28;19913;-71
2021/11/10 08:52:39;;;;;;;;;;;4.60;99.90;;;;;;5012444;28;19919;-71
2021/11/10 08:55:06;;;;;;;;;;;4.60;99.90;;;;;;5010332;28;19917;-71
2021/11/10 08:57:31;;;;;;;;;;;4.60;99.90;;;;;;5027801;28;19924;-69
2021/11/10 08:59:57;;;;;;;;;;;4.60;99.90;;;;;;5028426;28;20003;-70
2021/11/10 09:02:22;;;;;;;;;;;4.70;99.90;;;;;;5021101;28;20276;-71
2021/11/10 09:04:48;;;;;;;;;;;4.80;99.90;;;;;;5029339;28;20291;-71
2021/11/10 09:07:13;;;;;;;;;;;4.80;99.90;;;;;;5027718;28;19918;-71
2021/11/10 09:09:39;;;;;;;;;;;4.90;99.90;;;;;;5012940;28;19983;-72
2021/11/10 09:12:04;;;;;;;;;;;4.90;99.90;;;;;;5030033;28;19949;-72
2021/11/10 09:14:30;;;;;;;;;;;5.00;99.90;;;;;;5028851;28;19917;-72
2021/11/10 09:16:55;;;;;;;;;;;5.00;99.90;;;;;;5027630;28;19913;-71
2021/11/10 09:19:21;;;;;;;;;;;5.10;99.90;;;;;;5027634;28;20271;-70
2021/11/10 09:21:46;;;;;;;;;;;5.20;99.90;;;;;;5028847;28;19917;-71
2021/11/10 09:24:12;;;;;;;;;;;5.20;99.90;;;;;;5028363;28;20134;-72
2021/11/10 09:26:39;;;;;;;;;;;5.30;99.90;;;;;;5029958;28;20031;-71
2021/11/10 09:29:05;;;;;;;;;;;5.40;99.90;;;;;;5012450;28;20331;-70
2021/11/10 09:31:30;;;;;;;;;;;5.50;99.90;;;;;;5012108;28;20081;-70
2021/11/10 09:34:04;;;;;;;;;;;5.70;99.90;;;;;;5011054;28;19917;-71
2021/11/10 09:36:29;;;;;;;;;;;5.80;99.90;;;;;;5028270;28;19913;-70
2021/11/10 09:38:55;;;;;;;;;;;5.90;99.90;;;;;;5009888;28;19917;-69
2021/11/10 09:41:21;;;;;;;;;;;6.00;99.90;;;;;;5030733;28;19913;-69
2021/11/10 09:43:47;;;;;;;;;;;6.10;99.90;;;;;;5030322;28;19920;-68
2021/11/10 09:46:13;;;;;;;;;;;6.30;99.90;;;;;;5009170;28;19921;-69
2021/11/10 09:48:39;;;;;;;;;;;6.40;99.90;;;;;;5028328;28;19913;-70
2021/11/10 09:51:05;;;;;;;;;;;6.60;99.90;;;;;;5026686;28;20363;-71
2021/11/10 09:53:30;;;;;;;;;;;6.70;99.90;;;;;;5029839;28;19913;-69
2021/11/10 09:55:56;;;;;;;;;;;6.80;99.90;;;;;;5010871;28;19943;-70
2021/11/10 09:58:22;;;;;;;;;;;6.90;99.90;;;;;;5028704;28;19917;-72
2021/11/10 10:00:50;;;;;;;;;;;6.90;99.90;;;;;;5012087;28;19918;-70
2021/11/10 10:03:16;;;;;;;;;;;7.00;99.90;;;;;;5028377;28;19917;-69
2021/11/10 10:05:42;;;;;;;;;;;7.00;99.90;;;;;;5010704;28;19921;-70
2021/11/10 10:08:09;;;;;;;;;;;7.00;99.90;;;;;;5026848;28;20009;-70
2021/11/10 10:10:34;;;;;;;;;;;7.10;99.90;;;;;;5030366;28;19936;-70
2021/11/10 10:13:00;;;;;;;;;;;7.10;99.90;;;;;;5027029;28;21727;-68
2021/11/10 10:15:27;;;;;;;;;;;7.20;99.90;;;;;;5026754;28;20320;-70
2021/11/10 10:18:02;;;;;;;;;;;7.30;99.90;;;;;;5005884;28;20473;-69
2021/11/10 10:20:27;;;;;;;;;;;7.40;99.90;;;;;;5027592;28;20340;-69
2021/11/10 10:22:54;;;;;;;;;;;7.50;99.90;;;;;;5029608;28;20003;-69
2021/11/10 10:25:19;;;;;;;;;;;7.50;99.90;;;;;;5028481;28;19948;-68
2021/11/10 10:27:52;;;;;;;;;;;7.60;99.90;;;;;;5027354;28;20322;-69
2021/11/10 10:30:21;;;;;;;;;;;7.70;99.90;;;;;;5029279;28;20319;-69
2021/11/10 10:32:50;;;;;;;;;;;7.80;99.90;;;;;;5029248;28;20061;-69
2021/11/10 10:35:25;;;;;;;;;;;7.90;99.90;;;;;;5017257;28;19913;-70
2021/11/10 10:37:51;;;;;;;;;;;7.90;99.90;;;;;;5029895;28;19909;-69
2021/11/10 10:40:16;;;;;;;;;;;8.00;99.90;;;;;;5027101;28;20012;-69
2021/11/10 10:42:42;;;;;;;;;;;8.10;99.90;;;;;;5011073;28;19921;-70
2021/11/10 10:45:24;;;;;;;;;;;8.30;99.90;;;;;;5010813;28;19920;-68
2021/11/10 10:47:57;;;;;;;;;;;8.40;99.90;;;;;;5029370;28;19913;-71
2021/11/10 10:50:31;;;;;;;;;;;8.50;99.90;;;;;;5026547;28;20012;-71
2021/11/10 10:52:56;;;;;;;;;;;8.60;99.90;;;;;;5011186;28;19913;-68
2021/11/10 10:55:35;;;;;;;;;;;8.70;99.90;;;;;;5027571;28;19917;-70
2021/11/10 10:58:02;;;;;;;;;;;8.80;99.90;;;;;;5009117;28;19920;-70
2021/11/10 11:00:29;;;;;;;;;;;8.90;99.90;;;;;;5026010;28;19919;-70
2021/11/10 11:02:55;;;;;;;;;;;9.00;99.90;;;;;;5028278;28;19952;-69
2021/11/10 11:05:36;;;;;;;;;;;9.10;99.90;;;;;;5026384;28;19913;-70
2021/11/10 11:08:22;;;;;;;;;;;9.20;99.90;;;;;;5029152;28;19917;-70
2021/11/10 11:10:48;;;;;;;;;;;9.40;99.90;;;;;;5026671;28;19909;-69
2021/11/10 11:13:17;;;;;;;;;;;9.50;99.90;;;;;;5023824;28;20009;-69
2021/11/10 11:16:04;;;;;;;;;;;9.60;99.90;;;;;;5009592;28;20265;-69
2021/11/10 11:18:30;;;;;;;;;;;9.60;99.60;;;;;;5025411;28;20364;-70
2021/11/10 11:20:55;;;;;;;;;;;9.70;99.60;;;;;;5026885;28;19932;-71
2021/11/10 11:23:20;;;;;;;;;;;9.80;99.30;;;;;;5027708;28;19917;-70
2021/11/10 11:25:46;;;;;;;;;;;9.80;99.40;;;;;;5028175;28;19916;-69
2021/11/10 11:28:15;;;;;;;;;;;9.80;99.30;;;;;;5011645;28;19921;-70
2021/11/10 11:30:43;;;;;;;;;;;9.80;99.40;;;;;;5011963;28;19909;-70
2021/11/10 11:33:13;;;;;;;;;;;9.90;99.40;;;;;;5029040;28;19957;-70
2021/11/10 11:35:40;;;;;;;;;;;9.90;99.30;;;;;;5029359;28;19916;-70
2021/11/10 11:38:10;;;;;;;;;;;9.90;99.50;;;;;;5030519;28;20327;-70
2021/11/10 11:40:35;;;;;;;;;;;9.90;99.40;;;;;;5029918;28;19913;-70
2021/11/10 11:43:02;;;;;;;;;;;9.90;99.30;;;;;;5029462;28;19939;-70
2021/11/10 11:45:30;;;;;;;;;;;9.90;99.20;;;;;;5029266;28;20291;-70
2021/11/10 11:47:59;;;;;;;;;;;10.00;99.20;;;;;;5028657;28;19936;-70
2021/11/10 11:50:24;;;;;;;;;;;10.00;99.30;;;;;;5029344;28;19908;-70
2021/11/10 11:52:50;;;;;;;;;;;10.10;98.80;;;;;;5029041;28;20463;-71
2021/11/10 11:55:18;;;;;;;;;;;10.10;99.10;;;;;;5025436;28;19956;-70
2021/11/10 11:57:48;;;;;;;;;;;10.10;98.90;;;;;;5023136;28;20007;-73
2021/11/10 12:00:15;;;;;;;;;;;10.10;98.70;;;;;;5009533;28;19960;-69
2021/11/10 12:02:48;;;;;;;;;;;10.10;98.80;;;;;;5049235;23;19925;-76
2021/11/10 12:05:18;;;;;;;;;;;10.20;98.50;;;;;;5027940;28;20299;-76
2021/11/10 12:07:50;;;;;;;;;;;10.20;98.60;;;;;;5028438;28;20005;-77
2021/11/10 12:10:21;;;;;;;;;;;10.20;98.70;;;;;;5024694;28;19917;-77
2021/11/10 12:12:49;;;;;;;;;;;10.20;98.40;;;;;;5027802;28;19936;-81
2021/11/10 12:15:15;;;;;;;;;;;10.20;98.40;;;;;;5025821;28;19979;-78
2021/11/10 12:17:59;;;;;;;;;;;10.30;98.60;;;;;;5025080;28;19913;-79
2021/11/10 12:20:34;;;;;;;;;;;10.30;98.40;;;;;;5025348;28;20494;-79
2021/11/10 12:22:59;;;;;;;;;;;10.30;98.10;;;;;;5024678;28;19928;-78
2021/11/10 12:25:25;;;;;;;;;;;10.30;97.80;;;;;;5025995;28;19917;-78
2021/11/10 12:27:50;;;;;;;;;;;10.30;97.80;;;;;;5028413;28;19936;-78
2021/11/10 12:30:16;;;;;;;;;;;10.30;97.80;;;;;;5026031;28;19917;-78
2021/11/10 12:32:46;;;;;;;;;;;10.40;97.80;;;;;;5027882;28;19963;-77
2021/11/10 12:35:37;;;;;;;;;;;10.40;97.60;;;;;;5024061;28;19917;-78
2021/11/10 12:38:04;;;;;;;;;;;10.40;97.50;;;;;;5021051;28;20326;-77
2021/11/10 12:40:35;;;;;;;;;;;10.40;97.60;;;;;;5022919;28;20391;-74
2021/11/10 12:43:00;;;;;;;;;;;10.50;97.70;;;;;;5024341;28;20004;-77
2021/11/10 12:45:28;;;;;;;;;;;10.50;97.80;;;;;;5027689;28;19992;-75
2021/11/10 12:47:55;;;;;;;;;;;10.60;97.50;;;;;;5024637;28;20032;-75
2021/11/10 12:50:42;;;;;;;;;;;10.60;97.10;;;;;;5026824;28;19913;-79
2021/11/10 12:53:10;;;;;;;;;;;10.60;96.90;;;;;;5025969;28;19914;-79
2021/11/10 12:55:37;;;;;;;;;;;10.70;97.40;;;;;;5009558;28;20310;-70
2021/11/10 12:58:13;;;;;;;;;;;10.70;97.00;;;;;;5026375;28;19975;-75
2021/11/10 13:00:39;;;;;;;;;;;10.70;96.80;;;;;;5025500;28;19971;-75
2021/11/10 13:03:17;;;;;;;;;;;10.80;96.40;;;;;;5009666;28;19913;-76
2021/11/10 13:05:50;;;;;;;;;;;10.90;96.60;;;;;;5025507;28;19983;-76
2021/11/10 13:08:20;;;;;;;;;;;10.90;95.60;;;;;;5025640;28;19921;-77
2021/11/10 13:10:45;;;;;;;;;;;10.90;95.40;;;;;;5006760;28;19916;-75
2021/11/10 13:13:11;;;;;;;;;;;11.00;95.40;;;;;;5024496;28;20316;-76
2021/11/10 13:15:37;;;;;;;;;;;11.00;95.30;;;;;;5009912;28;19963;-77
2021/11/10 13:18:18;;;;;;;;;;;11.00;95.30;;;;;;5005573;28;19921;-75
2021/11/10 13:20:45;;;;;;;;;;;11.10;95.00;;;;;;5009863;28;19917;-76
2021/11/10 13:23:11;;;;;;;;;;;11.10;95.00;;;;;;5024445;28;19917;-75
2021/11/10 13:25:36;;;;;;;;;;;11.10;95.60;;;;;;5027284;28;20337;-74
2021/11/10 13:28:05;;;;;;;;;;;11.20;95.20;;;;;;5024163;28;19972;-74
2021/11/10 13:30:39;;;;;;;;;;;11.20;95.50;;;;;;5008609;28;20004;-76
2021/11/10 13:33:28;;;;;;;;;;;11.20;94.90;;;;;;5028140;28;19943;-74
2021/11/10 13:36:02;;;;;;;;;;;11.10;94.70;;;;;;5030729;28;20008;-74
2021/11/10 13:38:47;;;;;;;;;;;11.10;94.90;;;;;;5011394;28;19919;-74
2021/11/10 13:41:29;;;;;;;;;;;11.00;95.00;;;;;;5028656;28;19917;-74
2021/11/10 13:43:57;;;;;;;;;;;10.90;95.00;;;;;;5030030;28;20231;-74
2021/11/10 13:46:29;;;;;;;;;;;10.80;94.80;;;;;;5028296;28;19913;-74
2021/11/10 13:48:59;;;;;;;;;;;10.80;94.60;;;;;;5029378;28;19913;-75
2021/11/10 13:51:24;;;;;;;;;;;10.80;94.90;;;;;;5029341;28;20316;-76
2021/11/10 13:54:03;;;;;;;;;;;10.80;95.30;;;;;;5026401;28;19963;-74
2021/11/10 13:56:36;;;;;;;;;;;10.80;95.50;;;;;;5030609;28;19963;-74
2021/11/10 13:59:07;;;;;;;;;;;10.80;95.50;;;;;;5027593;28;19920;-74
2021/11/10 14:01:33;;;;;;;;;;;10.80;95.40;;;;;;5025126;28;19921;-74
2021/11/10 14:03:58;;;;;;;;;;;10.70;95.30;;;;;;5028320;28;20000;-74
2021/11/10 14:06:24;;;;;;;;;;;10.70;95.30;;;;;;5030512;28;19924;-74
2021/11/10 14:09:06;;;;;;;;;;;10.60;95.40;;;;;;5024987;28;19922;-74
2021/11/10 14:11:31;;;;;;;;;;;10.60;95.50;;;;;;5029966;28;19909;-74
2021/11/10 14:13:57;;;;;;;;;;;10.60;95.50;;;;;;5026363;28;20498;-77
2021/11/10 14:16:22;;;;;;;;;;;10.50;95.60;;;;;;5030150;28;19916;-71
2021/11/10 14:18:48;;;;;;;;;;;10.60;95.80;;;;;;5026452;28;20499;-76
2021/11/10 14:21:13;;;;;;;;;;;10.60;95.80;;;;;;5029399;28;19956;-75
2021/11/10 14:23:39;;;;;;;;;;;10.60;95.60;;;;;;5028221;28;19913;-76
2021/11/10 14:26:11;;;;;;;;;;;10.60;95.70;;;;;;5028367;28;19917;-76
2021/11/10 14:28:38;;;;;;;;;;;10.50;95.70;;;;;;5012968;28;19909;-75